sensor_id;sensor_type;location;lat;lon;timestamp;P1;durP1;ratioP1;P2;durP2;ratioP2
55913;SDS011;58179;48.776;9.124;2023-07-22T00:00:22;7.70;;;4.20;;
55913;SDS011;58179;48.776;9.124;2023-07-22T00:02:48;6.85;;;4.53;;
55913;SDS011;58179;48.776;9.124;2023-07-22T00:05:14;6.30;;;4.90;;
55913;SDS011;58179;48.776;9.124;2023-07-22T00:07:40;5.25;;;4.30;;
55913;SDS011;58179;48.776;9.124;2023-07-22T00:10:09;6.70;;;4.82;;
55913;SDS011;58179;48.776;9.124;2023-07-22T00:12:35;5.80;;;4.13;;
55913;SDS011;58179;48.776;9.124;2023-07-22T00:15:01;5.68;;;4.20;;
55913;SDS011;58179;48.776;9.124;2023-07-22T00:17:28;7.20;;;4.30;;
55913;SDS011;58179;48.776;9.124;2023-07-22T00:19:55;5.82;;;4.40;;
55913;SDS011;58179;48.776;9.124;2023-07-22T00:22:21;6.97;;;4.03;;
55913;SDS011;58179;48.776;9.124;2023-07-22T00:24:47;7.55;;;4.70;;
55913;SDS011;58179;48.776;9.124;2023-07-22T00:27:15;6.75;;;4.35;;
55913;SDS011;58179;48.776;9.124;2023-07-22T00:29:41;7.78;;;4.90;;
55913;SDS011;58179;48.776;9.124;2023-07-22T00:32:07;7.30;;;5.05;;
55913;SDS011;58179;48.776;9.124;2023-07-22T00:34:34;9.00;;;4.50;;
55913;SDS011;58179;48.776;9.124;2023-07-22T00:37:00;8.13;;;5.25;;
55913;SDS011;58179;48.776;9.124;2023-07-22T00:39:26;5.90;;;4.65;;
55913;SDS011;58179;48.776;9.124;2023-07-22T00:41:52;8.52;;;4.88;;
55913;SDS011;58179;48.776;9.124;2023-07-22T00:44:20;8.03;;;4.77;;
55913;SDS011;58179;48.776;9.124;2023-07-22T00:46:46;8.85;;;5.20;;
55913;SDS011;58179;48.776;9.124;2023-07-22T00:49:14;7.85;;;4.75;;
55913;SDS011;58179;48.776;9.124;2023-07-22T00:51:41;6.38;;;4.80;;
55913;SDS011;58179;48.776;9.124;2023-07-22T00:54:07;8.35;;;4.75;;
55913;SDS011;58179;48.776;9.124;2023-07-22T00:56:35;8.07;;;5.47;;
55913;SDS011;58179;48.776;9.124;2023-07-22T00:59:02;9.90;;;5.78;;
55913;SDS011;58179;48.776;9.124;2023-07-22T01:01:30;8.07;;;5.50;;
55913;SDS011;58179;48.776;9.124;2023-07-22T01:03:56;8.07;;;5.80;;
55913;SDS011;58179;48.776;9.124;2023-07-22T01:06:23;5.93;;;4.55;;
55913;SDS011;58179;48.776;9.124;2023-07-22T01:08:50;6.13;;;4.72;;
55913;SDS011;58179;48.776;9.124;2023-07-22T01:11:16;6.75;;;4.72;;
55913;SDS011;58179;48.776;9.124;2023-07-22T01:13:42;6.40;;;4.47;;
55913;SDS011;58179;48.776;9.124;2023-07-22T01:16:08;7.63;;;4.90;;
55913;SDS011;58179;48.776;9.124;2023-07-22T01:18:36;6.20;;;4.75;;
55913;SDS011;58179;48.776;9.124;2023-07-22T01:21:04;8.40;;;5.20;;
55913;SDS011;58179;48.776;9.124;2023-07-22T01:23:34;6.93;;;4.87;;
55913;SDS011;58179;48.776;9.124;2023-07-22T01:26:01;8.18;;;5.32;;
55913;SDS011;58179;48.776;9.124;2023-07-22T01:28:28;6.90;;;5.18;;
55913;SDS011;58179;48.776;9.124;2023-07-22T01:30:54;7.30;;;5.70;;
55913;SDS011;58179;48.776;9.124;2023-07-22T01:33:22;9.32;;;5.60;;
55913;SDS011;58179;48.776;9.124;2023-07-22T01:35:48;6.95;;;4.88;;
55913;SDS011;58179;48.776;9.124;2023-07-22T01:38:15;7.10;;;5.07;;
55913;SDS011;58179;48.776;9.124;2023-07-22T01:40:42;7.90;;;5.03;;
55913;SDS011;58179;48.776;9.124;2023-07-22T01:43:09;6.25;;;4.63;;
55913;SDS011;58179;48.776;9.124;2023-07-22T01:45:35;7.05;;;4.90;;
55913;SDS011;58179;48.776;9.124;2023-07-22T01:48:03;7.13;;;5.43;;
55913;SDS011;58179;48.776;9.124;2023-07-22T01:50:29;8.68;;;5.40;;
55913;SDS011;58179;48.776;9.124;2023-07-22T01:52:55;7.35;;;5.03;;
55913;SDS011;58179;48.776;9.124;2023-07-22T01:55:21;7.37;;;5.30;;
55913;SDS011;58179;48.776;9.124;2023-07-22T01:57:49;7.90;;;4.72;;
55913;SDS011;58179;48.776;9.124;2023-07-22T02:00:15;9.05;;;5.70;;
55913;SDS011;58179;48.776;9.124;2023-07-22T02:02:42;6.93;;;5.10;;
55913;SDS011;58179;48.776;9.124;2023-07-22T02:05:08;6.60;;;4.97;;
55913;SDS011;58179;48.776;9.124;2023-07-22T02:07:35;7.55;;;4.97;;
55913;SDS011;58179;48.776;9.124;2023-07-22T02:10:02;6.57;;;4.80;;
55913;SDS011;58179;48.776;9.124;2023-07-22T02:12:29;6.53;;;4.45;;
55913;SDS011;58179;48.776;9.124;2023-07-22T02:14:56;7.93;;;4.80;;
55913;SDS011;58179;48.776;9.124;2023-07-22T02:17:22;7.23;;;5.00;;
55913;SDS011;58179;48.776;9.124;2023-07-22T02:19:49;7.78;;;5.20;;
55913;SDS011;58179;48.776;9.124;2023-07-22T02:22:15;7.30;;;5.40;;
55913;SDS011;58179;48.776;9.124;2023-07-22T02:24:41;6.78;;;5.10;;
55913;SDS011;58179;48.776;9.124;2023-07-22T02:27:07;7.57;;;5.40;;
55913;SDS011;58179;48.776;9.124;2023-07-22T02:29:34;7.60;;;5.70;;
55913;SDS011;58179;48.776;9.124;2023-07-22T02:32:01;7.75;;;5.10;;
55913;SDS011;58179;48.776;9.124;2023-07-22T02:34:28;8.00;;;5.20;;
55913;SDS011;58179;48.776;9.124;2023-07-22T02:36:54;7.60;;;4.93;;
55913;SDS011;58179;48.776;9.124;2023-07-22T02:39:20;8.27;;;5.63;;
55913;SDS011;58179;48.776;9.124;2023-07-22T02:41:47;13.38;;;6.65;;
55913;SDS011;58179;48.776;9.124;2023-07-22T02:44:13;9.30;;;6.13;;
55913;SDS011;58179;48.776;9.124;2023-07-22T02:46:39;8.37;;;6.13;;
55913;SDS011;58179;48.776;9.124;2023-07-22T02:49:07;9.13;;;6.15;;
55913;SDS011;58179;48.776;9.124;2023-07-22T02:51:33;9.13;;;6.18;;
55913;SDS011;58179;48.776;9.124;2023-07-22T02:54:00;8.60;;;5.85;;
55913;SDS011;58179;48.776;9.124;2023-07-22T02:56:28;9.65;;;6.00;;
55913;SDS011;58179;48.776;9.124;2023-07-22T02:58:54;8.05;;;5.57;;
55913;SDS011;58179;48.776;9.124;2023-07-22T03:01:21;9.98;;;6.65;;
55913;SDS011;58179;48.776;9.124;2023-07-22T03:03:48;7.67;;;5.90;;
55913;SDS011;58179;48.776;9.124;2023-07-22T03:06:15;10.50;;;6.20;;
55913;SDS011;58179;48.776;9.124;2023-07-22T03:08:41;9.20;;;5.60;;
55913;SDS011;58179;48.776;9.124;2023-07-22T03:11:08;10.65;;;6.00;;
55913;SDS011;58179;48.776;9.124;2023-07-22T03:13:34;7.77;;;5.60;;
55913;SDS011;58179;48.776;9.124;2023-07-22T03:16:00;10.77;;;5.80;;
55913;SDS011;58179;48.776;9.124;2023-07-22T03:18:29;8.57;;;5.68;;
55913;SDS011;58179;48.776;9.124;2023-07-22T03:20:56;8.40;;;5.47;;
55913;SDS011;58179;48.776;9.124;2023-07-22T03:23:23;9.10;;;5.40;;
55913;SDS011;58179;48.776;9.124;2023-07-22T03:25:49;7.93;;;5.07;;
55913;SDS011;58179;48.776;9.124;2023-07-22T03:28:16;7.57;;;5.18;;
55913;SDS011;58179;48.776;9.124;2023-07-22T03:30:42;9.63;;;5.72;;
55913;SDS011;58179;48.776;9.124;2023-07-22T03:33:08;8.57;;;6.13;;
55913;SDS011;58179;48.776;9.124;2023-07-22T03:35:35;8.10;;;5.53;;
55913;SDS011;58179;48.776;9.124;2023-07-22T03:38:01;7.47;;;5.20;;
55913;SDS011;58179;48.776;9.124;2023-07-22T03:40:31;8.80;;;5.43;;
55913;SDS011;58179;48.776;9.124;2023-07-22T03:42:57;7.72;;;5.13;;
55913;SDS011;58179;48.776;9.124;2023-07-22T03:45:24;8.55;;;5.60;;
55913;SDS011;58179;48.776;9.124;2023-07-22T03:47:51;7.38;;;5.30;;
55913;SDS011;58179;48.776;9.124;2023-07-22T03:50:19;9.30;;;5.57;;
55913;SDS011;58179;48.776;9.124;2023-07-22T03:52:45;9.23;;;5.50;;
55913;SDS011;58179;48.776;9.124;2023-07-22T03:55:11;7.82;;;5.30;;
55913;SDS011;58179;48.776;9.124;2023-07-22T03:57:39;9.70;;;5.20;;
55913;SDS011;58179;48.776;9.124;2023-07-22T04:00:06;7.03;;;5.30;;
55913;SDS011;58179;48.776;9.124;2023-07-22T04:02:36;7.07;;;5.13;;
55913;SDS011;58179;48.776;9.124;2023-07-22T04:05:02;9.18;;;5.13;;
55913;SDS011;58179;48.776;9.124;2023-07-22T04:07:29;9.93;;;5.80;;
55913;SDS011;58179;48.776;9.124;2023-07-22T04:09:55;10.45;;;5.60;;
55913;SDS011;58179;48.776;9.124;2023-07-22T04:12:22;6.77;;;5.23;;
55913;SDS011;58179;48.776;9.124;2023-07-22T04:14:50;8.27;;;5.28;;
55913;SDS011;58179;48.776;9.124;2023-07-22T04:17:16;10.07;;;5.60;;
55913;SDS011;58179;48.776;9.124;2023-07-22T04:19:42;7.18;;;5.00;;
55913;SDS011;58179;48.776;9.124;2023-07-22T04:22:08;7.55;;;5.20;;
55913;SDS011;58179;48.776;9.124;2023-07-22T04:24:35;8.07;;;5.18;;
55913;SDS011;58179;48.776;9.124;2023-07-22T04:27:01;8.02;;;5.10;;
55913;SDS011;58179;48.776;9.124;2023-07-22T04:29:27;9.43;;;5.13;;
55913;SDS011;58179;48.776;9.124;2023-07-22T04:31:57;7.70;;;5.00;;
55913;SDS011;58179;48.776;9.124;2023-07-22T04:34:24;9.23;;;5.03;;
55913;SDS011;58179;48.776;9.124;2023-07-22T04:36:53;8.35;;;5.25;;
55913;SDS011;58179;48.776;9.124;2023-07-22T04:39:19;8.43;;;5.13;;
55913;SDS011;58179;48.776;9.124;2023-07-22T04:41:45;9.03;;;4.93;;
55913;SDS011;58179;48.776;9.124;2023-07-22T04:44:12;8.07;;;5.10;;
55913;SDS011;58179;48.776;9.124;2023-07-22T04:46:38;7.63;;;4.60;;
55913;SDS011;58179;48.776;9.124;2023-07-22T04:49:07;11.45;;;4.75;;
55913;SDS011;58179;48.776;9.124;2023-07-22T04:51:33;5.45;;;4.30;;
55913;SDS011;58179;48.776;9.124;2023-07-22T04:53:59;6.45;;;4.40;;
55913;SDS011;58179;48.776;9.124;2023-07-22T04:56:26;7.47;;;4.57;;
55913;SDS011;58179;48.776;9.124;2023-07-22T04:58:52;7.13;;;4.63;;
55913;SDS011;58179;48.776;9.124;2023-07-22T05:01:18;7.80;;;4.63;;
55913;SDS011;58179;48.776;9.124;2023-07-22T05:03:44;7.38;;;4.78;;
55913;SDS011;58179;48.776;9.124;2023-07-22T05:06:12;6.85;;;4.75;;
55913;SDS011;58179;48.776;9.124;2023-07-22T05:08:38;6.07;;;4.45;;
55913;SDS011;58179;48.776;9.124;2023-07-22T05:11:06;7.28;;;4.30;;
55913;SDS011;58179;48.776;9.124;2023-07-22T05:13:32;6.10;;;4.32;;
55913;SDS011;58179;48.776;9.124;2023-07-22T05:15:58;9.60;;;5.18;;
55913;SDS011;58179;48.776;9.124;2023-07-22T05:18:25;6.93;;;4.20;;
55913;SDS011;58179;48.776;9.124;2023-07-22T05:20:51;7.30;;;4.10;;
55913;SDS011;58179;48.776;9.124;2023-07-22T05:23:18;9.77;;;4.65;;
55913;SDS011;58179;48.776;9.124;2023-07-22T05:25:50;9.00;;;4.53;;
55913;SDS011;58179;48.776;9.124;2023-07-22T05:28:17;8.80;;;4.20;;
55913;SDS011;58179;48.776;9.124;2023-07-22T05:30:43;7.25;;;4.13;;
55913;SDS011;58179;48.776;9.124;2023-07-22T05:33:09;6.13;;;4.00;;
55913;SDS011;58179;48.776;9.124;2023-07-22T05:35:35;9.20;;;4.07;;
55913;SDS011;58179;48.776;9.124;2023-07-22T05:38:01;5.78;;;3.97;;
55913;SDS011;58179;48.776;9.124;2023-07-22T05:40:31;6.60;;;3.78;;
55913;SDS011;58179;48.776;9.124;2023-07-22T05:42:57;5.40;;;3.63;;
55913;SDS011;58179;48.776;9.124;2023-07-22T05:45:23;5.70;;;4.18;;
55913;SDS011;58179;48.776;9.124;2023-07-22T05:47:49;5.85;;;4.43;;
55913;SDS011;58179;48.776;9.124;2023-07-22T05:50:16;6.85;;;4.18;;
55913;SDS011;58179;48.776;9.124;2023-07-22T05:52:42;6.88;;;3.65;;
55913;SDS011;58179;48.776;9.124;2023-07-22T05:55:09;6.10;;;3.80;;
55913;SDS011;58179;48.776;9.124;2023-07-22T05:57:36;6.63;;;3.60;;
55913;SDS011;58179;48.776;9.124;2023-07-22T06:00:03;6.05;;;4.03;;
55913;SDS011;58179;48.776;9.124;2023-07-22T06:02:29;5.85;;;3.92;;
55913;SDS011;58179;48.776;9.124;2023-07-22T06:04:56;4.85;;;3.50;;
55913;SDS011;58179;48.776;9.124;2023-07-22T06:07:22;5.05;;;3.50;;
55913;SDS011;58179;48.776;9.124;2023-07-22T06:09:48;6.18;;;3.45;;
55913;SDS011;58179;48.776;9.124;2023-07-22T06:12:14;5.22;;;3.65;;
55913;SDS011;58179;48.776;9.124;2023-07-22T06:14:42;4.68;;;3.30;;
55913;SDS011;58179;48.776;9.124;2023-07-22T06:17:08;5.45;;;3.25;;
55913;SDS011;58179;48.776;9.124;2023-07-22T06:19:34;4.13;;;2.70;;
55913;SDS011;58179;48.776;9.124;2023-07-22T06:22:00;3.10;;;2.78;;
55913;SDS011;58179;48.776;9.124;2023-07-22T06:24:26;3.20;;;2.42;;
55913;SDS011;58179;48.776;9.124;2023-07-22T06:26:52;2.70;;;2.40;;
55913;SDS011;58179;48.776;9.124;2023-07-22T06:29:19;2.42;;;2.00;;
55913;SDS011;58179;48.776;9.124;2023-07-22T06:31:46;2.92;;;2.40;;
55913;SDS011;58179;48.776;9.124;2023-07-22T06:34:12;2.50;;;2.30;;
55913;SDS011;58179;48.776;9.124;2023-07-22T06:36:38;2.47;;;2.10;;
55913;SDS011;58179;48.776;9.124;2023-07-22T06:39:05;2.80;;;2.40;;
55913;SDS011;58179;48.776;9.124;2023-07-22T06:41:31;2.80;;;2.40;;
55913;SDS011;58179;48.776;9.124;2023-07-22T06:43:57;3.58;;;2.30;;
55913;SDS011;58179;48.776;9.124;2023-07-22T06:46:23;2.53;;;2.33;;
55913;SDS011;58179;48.776;9.124;2023-07-22T06:48:51;5.85;;;3.25;;
55913;SDS011;58179;48.776;9.124;2023-07-22T06:51:17;4.00;;;3.10;;
55913;SDS011;58179;48.776;9.124;2023-07-22T06:53:43;3.40;;;3.00;;
55913;SDS011;58179;48.776;9.124;2023-07-22T06:56:09;7.60;;;3.83;;
55913;SDS011;58179;48.776;9.124;2023-07-22T06:58:35;4.68;;;3.17;;
55913;SDS011;58179;48.776;9.124;2023-07-22T07:01:02;5.50;;;3.10;;
55913;SDS011;58179;48.776;9.124;2023-07-22T07:03:28;4.65;;;2.90;;
55913;SDS011;58179;48.776;9.124;2023-07-22T07:05:56;6.07;;;3.60;;
55913;SDS011;58179;48.776;9.124;2023-07-22T07:08:24;5.10;;;3.10;;
55913;SDS011;58179;48.776;9.124;2023-07-22T07:10:50;4.50;;;3.00;;
55913;SDS011;58179;48.776;9.124;2023-07-22T07:13:17;4.05;;;2.75;;
55913;SDS011;58179;48.776;9.124;2023-07-22T07:15:46;4.10;;;2.80;;
55913;SDS011;58179;48.776;9.124;2023-07-22T07:18:15;4.93;;;3.03;;
55913;SDS011;58179;48.776;9.124;2023-07-22T07:20:42;4.43;;;2.60;;
55913;SDS011;58179;48.776;9.124;2023-07-22T07:23:10;6.20;;;3.30;;
55913;SDS011;58179;48.776;9.124;2023-07-22T07:25:37;3.63;;;2.67;;
55913;SDS011;58179;48.776;9.124;2023-07-22T07:28:04;4.10;;;2.70;;
55913;SDS011;58179;48.776;9.124;2023-07-22T07:30:30;4.93;;;3.30;;
55913;SDS011;58179;48.776;9.124;2023-07-22T07:32:57;5.87;;;3.10;;
55913;SDS011;58179;48.776;9.124;2023-07-22T07:35:23;5.97;;;2.90;;
55913;SDS011;58179;48.776;9.124;2023-07-22T07:37:49;5.45;;;3.10;;
55913;SDS011;58179;48.776;9.124;2023-07-22T07:40:17;4.97;;;3.17;;
55913;SDS011;58179;48.776;9.124;2023-07-22T07:42:43;4.07;;;2.80;;
55913;SDS011;58179;48.776;9.124;2023-07-22T07:45:10;4.40;;;2.43;;
55913;SDS011;58179;48.776;9.124;2023-07-22T07:47:36;6.30;;;2.65;;
55913;SDS011;58179;48.776;9.124;2023-07-22T07:50:02;3.78;;;2.78;;
55913;SDS011;58179;48.776;9.124;2023-07-22T07:52:29;3.45;;;2.70;;
55913;SDS011;58179;48.776;9.124;2023-07-22T07:54:55;6.03;;;2.55;;
55913;SDS011;58179;48.776;9.124;2023-07-22T07:57:22;6.05;;;2.80;;
55913;SDS011;58179;48.776;9.124;2023-07-22T07:59:49;6.53;;;2.90;;
55913;SDS011;58179;48.776;9.124;2023-07-22T08:02:15;6.38;;;2.80;;
55913;SDS011;58179;48.776;9.124;2023-07-22T08:04:41;3.33;;;2.80;;
55913;SDS011;58179;48.776;9.124;2023-07-22T08:07:07;5.38;;;2.92;;
55913;SDS011;58179;48.776;9.124;2023-07-22T08:09:33;3.30;;;2.45;;
55913;SDS011;58179;48.776;9.124;2023-07-22T08:12:00;3.45;;;2.42;;
55913;SDS011;58179;48.776;9.124;2023-07-22T08:14:28;4.82;;;2.50;;
55913;SDS011;58179;48.776;9.124;2023-07-22T08:16:55;4.47;;;2.50;;
55913;SDS011;58179;48.776;9.124;2023-07-22T08:19:21;4.35;;;2.55;;
55913;SDS011;58179;48.776;9.124;2023-07-22T08:21:47;3.72;;;2.35;;
55913;SDS011;58179;48.776;9.124;2023-07-22T08:24:14;2.83;;;2.15;;
55913;SDS011;58179;48.776;9.124;2023-07-22T08:26:40;3.03;;;1.98;;
55913;SDS011;58179;48.776;9.124;2023-07-22T08:29:06;4.28;;;2.30;;
55913;SDS011;58179;48.776;9.124;2023-07-22T08:31:39;3.78;;;2.10;;
55913;SDS011;58179;48.776;9.124;2023-07-22T08:34:12;2.70;;;2.03;;
55913;SDS011;58179;48.776;9.124;2023-07-22T08:36:40;3.92;;;1.95;;
55913;SDS011;58179;48.776;9.124;2023-07-22T08:39:07;3.70;;;1.83;;
55913;SDS011;58179;48.776;9.124;2023-07-22T08:41:33;3.28;;;1.98;;
55913;SDS011;58179;48.776;9.124;2023-07-22T08:44:00;2.45;;;1.90;;
55913;SDS011;58179;48.776;9.124;2023-07-22T08:46:27;2.35;;;1.70;;
55913;SDS011;58179;48.776;9.124;2023-07-22T08:48:58;3.00;;;1.85;;
55913;SDS011;58179;48.776;9.124;2023-07-22T08:51:27;2.67;;;1.70;;
55913;SDS011;58179;48.776;9.124;2023-07-22T08:53:55;4.10;;;1.80;;
55913;SDS011;58179;48.776;9.124;2023-07-22T08:56:22;3.00;;;1.67;;
55913;SDS011;58179;48.776;9.124;2023-07-22T08:58:50;3.70;;;1.83;;
55913;SDS011;58179;48.776;9.124;2023-07-22T09:01:20;2.38;;;1.70;;
55913;SDS011;58179;48.776;9.124;2023-07-22T09:03:46;2.17;;;1.67;;
55913;SDS011;58179;48.776;9.124;2023-07-22T09:06:18;2.35;;;1.75;;
55913;SDS011;58179;48.776;9.124;2023-07-22T09:08:44;2.88;;;1.77;;
55913;SDS011;58179;48.776;9.124;2023-07-22T09:11:11;2.90;;;1.60;;
55913;SDS011;58179;48.776;9.124;2023-07-22T09:13:39;2.10;;;1.60;;
55913;SDS011;58179;48.776;9.124;2023-07-22T09:16:06;2.33;;;1.80;;
55913;SDS011;58179;48.776;9.124;2023-07-22T09:18:35;1.95;;;1.48;;
55913;SDS011;58179;48.776;9.124;2023-07-22T09:21:02;3.00;;;1.90;;
55913;SDS011;58179;48.776;9.124;2023-07-22T09:23:33;2.15;;;1.70;;
55913;SDS011;58179;48.776;9.124;2023-07-22T09:26:09;2.42;;;1.60;;
55913;SDS011;58179;48.776;9.124;2023-07-22T09:28:47;2.20;;;1.58;;
55913;SDS011;58179;48.776;9.124;2023-07-22T09:31:14;2.88;;;1.70;;
55913;SDS011;58179;48.776;9.124;2023-07-22T09:33:41;2.38;;;1.70;;
55913;SDS011;58179;48.776;9.124;2023-07-22T09:36:09;1.73;;;1.58;;
55913;SDS011;58179;48.776;9.124;2023-07-22T09:38:37;1.60;;;1.40;;
55913;SDS011;58179;48.776;9.124;2023-07-22T09:41:03;3.13;;;1.60;;
55913;SDS011;58179;48.776;9.124;2023-07-22T09:43:30;2.25;;;1.70;;
55913;SDS011;58179;48.776;9.124;2023-07-22T09:45:56;3.28;;;1.77;;
55913;SDS011;58179;48.776;9.124;2023-07-22T09:48:38;3.27;;;1.80;;
55913;SDS011;58179;48.776;9.124;2023-07-22T09:51:05;2.25;;;1.70;;
55913;SDS011;58179;48.776;9.124;2023-07-22T09:53:37;2.15;;;1.63;;
55913;SDS011;58179;48.776;9.124;2023-07-22T09:56:08;2.17;;;1.60;;
55913;SDS011;58179;48.776;9.124;2023-07-22T09:58:34;3.55;;;1.90;;
55913;SDS011;58179;48.776;9.124;2023-07-22T10:01:01;2.28;;;1.70;;
55913;SDS011;58179;48.776;9.124;2023-07-22T10:03:28;3.75;;;1.55;;
55913;SDS011;58179;48.776;9.124;2023-07-22T10:05:56;5.78;;;1.60;;
55913;SDS011;58179;48.776;9.124;2023-07-22T10:08:29;2.50;;;1.70;;
55913;SDS011;58179;48.776;9.124;2023-07-22T10:11:00;3.22;;;1.75;;
55913;SDS011;58179;48.776;9.124;2023-07-22T10:13:28;2.70;;;1.60;;
55913;SDS011;58179;48.776;9.124;2023-07-22T10:15:54;2.40;;;1.73;;
55913;SDS011;58179;48.776;9.124;2023-07-22T10:18:21;1.70;;;1.50;;
55913;SDS011;58179;48.776;9.124;2023-07-22T10:20:48;1.90;;;1.50;;
55913;SDS011;58179;48.776;9.124;2023-07-22T10:23:14;2.57;;;1.77;;
55913;SDS011;58179;48.776;9.124;2023-07-22T10:25:41;6.82;;;1.80;;
55913;SDS011;58179;48.776;9.124;2023-07-22T10:28:09;3.72;;;1.60;;
55913;SDS011;58179;48.776;9.124;2023-07-22T10:30:37;2.50;;;1.73;;
55913;SDS011;58179;48.776;9.124;2023-07-22T10:33:03;2.13;;;1.40;;
55913;SDS011;58179;48.776;9.124;2023-07-22T10:38:25;3.05;;;1.88;;
55913;SDS011;58179;48.776;9.124;2023-07-22T10:40:52;3.08;;;1.67;;
55913;SDS011;58179;48.776;9.124;2023-07-22T10:43:23;4.22;;;1.70;;
55913;SDS011;58179;48.776;9.124;2023-07-22T10:45:51;2.85;;;1.40;;
55913;SDS011;58179;48.776;9.124;2023-07-22T10:48:18;2.53;;;1.45;;
55913;SDS011;58179;48.776;9.124;2023-07-22T10:50:46;1.80;;;1.47;;
55913;SDS011;58179;48.776;9.124;2023-07-22T10:53:19;2.83;;;1.40;;
55913;SDS011;58179;48.776;9.124;2023-07-22T10:56:12;2.25;;;1.38;;
55913;SDS011;58179;48.776;9.124;2023-07-22T10:58:57;3.55;;;1.92;;
55913;SDS011;58179;48.776;9.124;2023-07-22T11:01:25;2.30;;;1.48;;
55913;SDS011;58179;48.776;9.124;2023-07-22T11:04:13;1.95;;;1.38;;
55913;SDS011;58179;48.776;9.124;2023-07-22T11:06:53;2.95;;;1.50;;
55913;SDS011;58179;48.776;9.124;2023-07-22T11:09:39;4.10;;;1.67;;
55913;SDS011;58179;48.776;9.124;2023-07-22T11:12:08;3.10;;;1.50;;
55913;SDS011;58179;48.776;9.124;2023-07-22T11:14:39;1.92;;;1.42;;
55913;SDS011;58179;48.776;9.124;2023-07-22T11:17:10;3.03;;;1.60;;
55913;SDS011;58179;48.776;9.124;2023-07-22T11:19:36;3.38;;;1.73;;
55913;SDS011;58179;48.776;9.124;2023-07-22T11:22:03;2.78;;;1.80;;
55913;SDS011;58179;48.776;9.124;2023-07-22T11:24:32;4.63;;;1.80;;
55913;SDS011;58179;48.776;9.124;2023-07-22T11:27:03;2.35;;;1.73;;
55913;SDS011;58179;48.776;9.124;2023-07-22T11:29:30;3.67;;;2.10;;
55913;SDS011;58179;48.776;9.124;2023-07-22T11:31:58;2.50;;;1.90;;
55913;SDS011;58179;48.776;9.124;2023-07-22T11:34:24;2.47;;;1.80;;
55913;SDS011;58179;48.776;9.124;2023-07-22T11:36:51;3.63;;;2.15;;
55913;SDS011;58179;48.776;9.124;2023-07-22T11:39:19;2.58;;;1.83;;
55913;SDS011;58179;48.776;9.124;2023-07-22T11:41:46;2.85;;;1.95;;
55913;SDS011;58179;48.776;9.124;2023-07-22T11:44:14;3.70;;;1.77;;
55913;SDS011;58179;48.776;9.124;2023-07-22T11:46:49;2.67;;;2.05;;
55913;SDS011;58179;48.776;9.124;2023-07-22T11:49:25;2.30;;;1.70;;
55913;SDS011;58179;48.776;9.124;2023-07-22T11:51:56;3.55;;;2.00;;
55913;SDS011;58179;48.776;9.124;2023-07-22T11:54:23;2.25;;;1.77;;
55913;SDS011;58179;48.776;9.124;2023-07-22T11:56:50;3.83;;;2.00;;
55913;SDS011;58179;48.776;9.124;2023-07-22T11:59:16;2.33;;;1.52;;
55913;SDS011;58179;48.776;9.124;2023-07-22T12:01:56;2.10;;;1.70;;
55913;SDS011;58179;48.776;9.124;2023-07-22T12:04:26;1.95;;;1.60;;
55913;SDS011;58179;48.776;9.124;2023-07-22T12:06:52;3.22;;;2.08;;
55913;SDS011;58179;48.776;9.124;2023-07-22T12:09:18;2.90;;;1.70;;
55913;SDS011;58179;48.776;9.124;2023-07-22T12:11:44;3.72;;;1.80;;
55913;SDS011;58179;48.776;9.124;2023-07-22T12:14:11;3.65;;;2.00;;
55913;SDS011;58179;48.776;9.124;2023-07-22T12:16:39;2.28;;;1.73;;
55913;SDS011;58179;48.776;9.124;2023-07-22T12:19:06;3.70;;;1.63;;
55913;SDS011;58179;48.776;9.124;2023-07-22T12:21:35;3.13;;;2.05;;
55913;SDS011;58179;48.776;9.124;2023-07-22T12:24:02;2.05;;;1.70;;
55913;SDS011;58179;48.776;9.124;2023-07-22T12:26:31;2.33;;;1.50;;
55913;SDS011;58179;48.776;9.124;2023-07-22T12:28:57;2.28;;;1.63;;
55913;SDS011;58179;48.776;9.124;2023-07-22T12:31:24;2.40;;;1.73;;
55913;SDS011;58179;48.776;9.124;2023-07-22T12:33:50;2.10;;;1.70;;
55913;SDS011;58179;48.776;9.124;2023-07-22T12:36:16;3.20;;;1.60;;
55913;SDS011;58179;48.776;9.124;2023-07-22T12:38:44;2.70;;;1.80;;
55913;SDS011;58179;48.776;9.124;2023-07-22T12:41:10;2.85;;;2.10;;
55913;SDS011;58179;48.776;9.124;2023-07-22T12:43:36;3.85;;;1.98;;
55913;SDS011;58179;48.776;9.124;2023-07-22T12:46:02;5.45;;;1.83;;
55913;SDS011;58179;48.776;9.124;2023-07-22T12:48:29;2.85;;;1.75;;
55913;SDS011;58179;48.776;9.124;2023-07-22T12:50:55;3.35;;;2.05;;
55913;SDS011;58179;48.776;9.124;2023-07-22T12:53:21;3.63;;;2.03;;
55913;SDS011;58179;48.776;9.124;2023-07-22T12:55:49;2.63;;;1.80;;
55913;SDS011;58179;48.776;9.124;2023-07-22T12:58:15;3.30;;;1.85;;
55913;SDS011;58179;48.776;9.124;2023-07-22T13:00:41;3.42;;;1.85;;
55913;SDS011;58179;48.776;9.124;2023-07-22T13:03:07;2.90;;;1.90;;
55913;SDS011;58179;48.776;9.124;2023-07-22T13:05:34;2.85;;;2.13;;
55913;SDS011;58179;48.776;9.124;2023-07-22T13:08:00;2.88;;;2.08;;
55913;SDS011;58179;48.776;9.124;2023-07-22T13:10:26;2.60;;;1.95;;
55913;SDS011;58179;48.776;9.124;2023-07-22T13:12:55;2.67;;;1.92;;
55913;SDS011;58179;48.776;9.124;2023-07-22T13:15:21;3.63;;;2.33;;
55913;SDS011;58179;48.776;9.124;2023-07-22T13:17:47;2.92;;;2.05;;
55913;SDS011;58179;48.776;9.124;2023-07-22T13:20:13;2.90;;;2.20;;
55913;SDS011;58179;48.776;9.124;2023-07-22T13:22:39;4.20;;;2.58;;
55913;SDS011;58179;48.776;9.124;2023-07-22T13:25:06;3.25;;;1.92;;
55913;SDS011;58179;48.776;9.124;2023-07-22T13:27:34;5.03;;;2.33;;
55913;SDS011;58179;48.776;9.124;2023-07-22T13:30:01;2.65;;;2.00;;
55913;SDS011;58179;48.776;9.124;2023-07-22T13:32:27;4.53;;;2.33;;
55913;SDS011;58179;48.776;9.124;2023-07-22T13:34:54;3.80;;;2.47;;
55913;SDS011;58179;48.776;9.124;2023-07-22T13:37:20;3.70;;;1.83;;
55913;SDS011;58179;48.776;9.124;2023-07-22T13:39:46;2.92;;;2.10;;
55913;SDS011;58179;48.776;9.124;2023-07-22T13:42:12;4.40;;;2.20;;
55913;SDS011;58179;48.776;9.124;2023-07-22T13:44:38;3.38;;;2.33;;
55913;SDS011;58179;48.776;9.124;2023-07-22T13:47:06;3.30;;;2.30;;
55913;SDS011;58179;48.776;9.124;2023-07-22T13:49:32;3.97;;;2.47;;
55913;SDS011;58179;48.776;9.124;2023-07-22T13:51:58;3.47;;;2.47;;
55913;SDS011;58179;48.776;9.124;2023-07-22T13:54:25;3.17;;;2.40;;
55913;SDS011;58179;48.776;9.124;2023-07-22T13:56:51;2.42;;;1.92;;
55913;SDS011;58179;48.776;9.124;2023-07-22T13:59:17;4.22;;;2.33;;
55913;SDS011;58179;48.776;9.124;2023-07-22T14:01:43;2.80;;;2.20;;
55913;SDS011;58179;48.776;9.124;2023-07-22T14:04:10;3.55;;;2.10;;
55913;SDS011;58179;48.776;9.124;2023-07-22T14:06:37;3.70;;;2.65;;
55913;SDS011;58179;48.776;9.124;2023-07-22T14:09:03;3.15;;;2.30;;
55913;SDS011;58179;48.776;9.124;2023-07-22T14:11:29;3.90;;;2.20;;
55913;SDS011;58179;48.776;9.124;2023-07-22T14:13:56;2.85;;;2.25;;
55913;SDS011;58179;48.776;9.124;2023-07-22T14:16:22;3.40;;;2.53;;
55913;SDS011;58179;48.776;9.124;2023-07-22T14:18:48;3.75;;;2.70;;
55913;SDS011;58179;48.776;9.124;2023-07-22T14:21:18;2.65;;;2.08;;
55913;SDS011;58179;48.776;9.124;2023-07-22T14:23:44;5.07;;;2.28;;
55913;SDS011;58179;48.776;9.124;2023-07-22T14:26:10;3.47;;;2.17;;
55913;SDS011;58179;48.776;9.124;2023-07-22T14:28:36;2.45;;;2.08;;
55913;SDS011;58179;48.776;9.124;2023-07-22T14:31:02;2.90;;;2.17;;
55913;SDS011;58179;48.776;9.124;2023-07-22T14:33:29;3.90;;;2.30;;
55913;SDS011;58179;48.776;9.124;2023-07-22T14:35:55;3.90;;;2.50;;
55913;SDS011;58179;48.776;9.124;2023-07-22T14:38:22;3.83;;;2.42;;
55913;SDS011;58179;48.776;9.124;2023-07-22T14:40:49;3.75;;;2.40;;
55913;SDS011;58179;48.776;9.124;2023-07-22T14:43:15;4.72;;;2.30;;
55913;SDS011;58179;48.776;9.124;2023-07-22T14:45:41;4.72;;;2.85;;
55913;SDS011;58179;48.776;9.124;2023-07-22T14:48:07;2.55;;;2.30;;
55913;SDS011;58179;48.776;9.124;2023-07-22T14:50:33;5.78;;;2.70;;